Time,TemperatureF,DewpointF,PressureIn,WindDirection,WindDirectionDegrees,WindSpeedMPH,WindSpeedGustMPH,Humidity,HourlyPrecipIn,Conditions,Clouds,dailyrainin,SolarRadiationWatts/m^2,SoftwareType,DateUTC
2014-01-14 00:01:00,19.3,-99.9,29.62,North,0,3.0,5.4,89,0.00,,,0.00,0.203,,2014-01-14 06:01:00,
2014-01-14 00:11:00,19.4,-99.9,29.63,North,4,2.0,3.8,89,0.00,,,0.00,0.203,,2014-01-14 06:11:00,
2014-01-14 00:21:00,19.5,-99.9,29.64,North,6,3.0,5.4,89,0.00,,,0.00,0.2,,2014-01-14 06:21:00,
2014-01-14 00:31:00,19.6,-99.9,29.65,NW,320,4.0,7.1,88,0.00,,,0.00,0.203,,2014-01-14 06:31:00,
2014-01-14 00:41:00,19.8,-99.9,29.66,NW,323,4.0,8.8,88,0.00,,,0.00,0.203,,2014-01-14 06:41:00,
2014-01-14 00:51:00,19.8,-99.9,29.67,NW,319,3.0,5.4,88,0.00,,,0.00,0.203,,2014-01-14 06:51:00,
2014-01-14 01:01:00,20.0,-99.9,29.68,WNW,289,6.0,10.5,88,0.00,,,0.00,0.203,,2014-01-14 07:01:00,
2014-01-14 01:11:00,20.5,-99.9,29.69,WNW,290,6.0,8.8,87,0.00,,,0.00,0.203,,2014-01-14 07:11:00,
2014-01-14 01:21:00,21.0,-99.9,29.70,NNW,334,5.0,8.8,87,0.00,,,0.00,0.203,,2014-01-14 07:21:00,
2014-01-14 01:31:00,22.0,-99.9,29.70,NW,326,9.0,15.5,85,0.00,,,0.00,0.203,,2014-01-14 07:31:00,
2014-01-14 01:41:00,22.1,-99.9,29.71,NNW,340,13.0,22.2,85,0.00,,,0.00,0.203,,2014-01-14 07:41:00,
2014-01-14 01:51:00,22.0,-99.9,29.71,NW,320,12.0,20.5,85,0.00,,,0.00,0.203,,2014-01-14 07:51:00,
2014-01-14 02:01:00,21.8,-99.9,29.72,NNW,328,11.0,17.2,86,0.00,,,0.00,0.203,,2014-01-14 08:01:00,
2014-01-14 02:11:00,21.7,-99.9,29.73,NNW,332,12.0,18.9,85,0.00,,,0.00,0.203,,2014-01-14 08:11:00,
2014-01-14 02:21:00,21.5,-99.9,29.73,NNW,328,12.0,22.2,84,0.00,,,0.00,0.203,,2014-01-14 08:21:00,
2014-01-14 02:31:00,21.3,-99.9,29.74,West,272,9.0,13.8,84,0.00,,,0.00,0.203,,2014-01-14 08:31:00,
2014-01-14 02:41:00,21.2,-99.9,29.75,NW,313,19.0,30.6,82,0.00,,,0.00,0.203,,2014-01-14 08:41:00,
2014-01-14 02:51:00,21.3,-99.9,29.76,NW,317,13.0,28.9,79,0.00,,,0.00,0.2,,2014-01-14 08:51:00,
2014-01-14 03:01:00,21.2,-99.9,29.77,NW,322,12.0,20.5,78,0.00,,,0.00,0.197,,2014-01-14 09:01:00,
2014-01-14 03:11:00,20.9,-99.9,29.78,North,0,14.0,22.2,78,0.00,,,0.00,0.19,,2014-01-14 09:11:00,
2014-01-14 03:21:00,20.8,-99.9,29.79,NW,319,13.0,20.5,78,0.00,,,0.00,0.166,,2014-01-14 09:21:00,
2014-01-14 03:31:00,20.8,-99.9,29.79,WNW,290,12.0,20.5,78,0.00,,,0.00,0.18,,2014-01-14 09:31:00,
2014-01-14 03:41:00,20.8,-99.9,29.79,NNW,335,11.0,17.2,78,0.00,,,0.00,0.193,,2014-01-14 09:41:00,
2014-01-14 03:51:00,20.6,-99.9,29.79,NW,319,10.0,15.5,78,0.00,,,0.00,0.19,,2014-01-14 09:51:00,
2014-01-14 04:01:00,20.5,-99.9,29.80,NNW,329,11.0,17.2,78,0.00,,,0.00,0.115,,2014-01-14 10:01:00,
2014-01-14 04:11:00,20.5,-99.9,29.81,NW,305,8.0,15.5,79,0.00,,,0.00,0.142,,2014-01-14 10:11:00,
2014-01-14 04:21:00,20.2,-99.9,29.81,NNW,334,9.0,13.8,81,0.00,,,0.00,0.203,,2014-01-14 10:21:00,
2014-01-14 04:31:00,20.3,-99.9,29.82,NNW,328,10.0,18.9,82,0.00,,,0.00,0.203,,2014-01-14 10:31:00,
2014-01-14 04:41:00,20.1,-99.9,29.82,NW,308,12.0,17.2,83,0.00,,,0.00,0.203,,2014-01-14 10:41:00,
2014-01-14 04:51:00,20.4,-99.9,29.83,NNW,337,14.0,22.2,81,0.00,,,0.00,0.166,,2014-01-14 10:51:00,
2014-01-14 05:01:00,20.2,-99.9,29.84,NNW,339,15.0,22.2,80,0.00,,,0.00,0.176,,2014-01-14 11:01:00,
2014-01-14 05:11:00,19.9,-99.9,29.84,East,88,15.0,25.6,80,0.00,,,0.00,0.173,,2014-01-14 11:11:00,
2014-01-14 05:21:00,19.6,-99.9,29.85,NNW,342,13.0,18.9,82,0.00,,,0.00,0.19,,2014-01-14 11:21:00,
2014-01-14 05:31:00,19.4,-99.9,29.85,North,351,13.0,18.9,83,0.00,,,0.00,0.2,,2014-01-14 11:31:00,
2014-01-14 05:41:00,19.4,-99.9,29.85,NW,315,10.0,13.8,82,0.00,,,0.00,0.125,,2014-01-14 11:41:00,
2014-01-14 05:51:00,19.7,-99.9,29.86,NW,321,14.0,22.2,77,0.00,,,0.00,0.125,,2014-01-14 11:51:00,
2014-01-14 06:01:00,19.5,-99.9,29.86,North,9,11.0,17.2,77,0.00,,,0.00,0.058,,2014-01-14 12:01:00,
2014-01-14 06:11:00,19.2,-99.9,29.87,NW,324,10.0,17.2,77,0.00,,,0.00,0.102,,2014-01-14 12:11:00,
2014-01-14 06:21:00,18.8,-99.9,29.87,NW,318,13.0,18.9,77,0.00,,,0.00,0.115,,2014-01-14 12:21:00,
2014-01-14 06:31:00,18.5,-99.9,29.88,North,0,13.0,22.2,77,0.00,,,0.00,0.146,,2014-01-14 12:31:00,
2014-01-14 06:41:00,18.3,-99.9,29.89,NNW,331,13.0,22.2,77,0.00,,,0.00,0.136,,2014-01-14 12:41:00,
2014-01-14 06:51:00,18.0,-99.9,29.90,ENE,75,12.0,18.9,76,0.00,,,0.00,0.108,,2014-01-14 12:51:00,
2014-01-14 07:01:00,17.9,-99.9,29.91,North,350,10.0,15.5,75,0.00,,,0.00,0.092,,2014-01-14 13:01:00,
2014-01-14 07:11:00,17.7,-99.9,29.92,NNW,338,6.0,8.8,76,0.00,,,0.00,0.014,,2014-01-14 13:11:00,
2014-01-14 07:21:00,17.6,-99.9,29.93,NW,323,11.0,17.2,76,0.00,,,0.00,0.075,,2014-01-14 13:21:00,
2014-01-14 07:31:00,17.5,-99.9,29.94,NW,320,11.0,17.2,75,0.00,,,0.00,0.054,,2014-01-14 13:31:00,
2014-01-14 07:41:00,17.4,-99.9,29.94,WNW,301,9.0,15.5,76,0.00,,,0.00,0.092,,2014-01-14 13:41:00,
2014-01-14 07:51:00,17.3,-99.9,29.95,North,1,7.0,10.5,76,0.00,,,0.00,0.203,,2014-01-14 13:51:00,
2014-01-14 08:01:00,17.1,-99.9,29.96,NNW,334,11.0,18.9,77,0.00,,,0.00,0.61,,2014-01-14 14:01:00,
2014-01-14 08:11:00,17.0,-99.9,29.96,NNW,348,12.0,17.2,78,0.00,,,0.00,1.801,,2014-01-14 14:11:00,
2014-01-14 08:21:00,16.8,-99.9,29.97,NNW,327,8.0,13.8,79,0.00,,,0.00,3.577,,2014-01-14 14:21:00,
2014-01-14 08:31:00,16.8,-99.9,29.98,NNW,343,7.0,12.1,80,0.00,,,0.00,8.35,,2014-01-14 14:31:00,
2014-01-14 08:41:00,16.7,-99.9,29.98,NNW,338,8.0,13.8,78,0.00,,,0.00,18.51,,2014-01-14 14:41:00,
2014-01-14 08:51:00,16.7,-99.9,29.99,NW,320,8.0,15.5,76,0.00,,,0.00,25.89,,2014-01-14 14:51:00,
2014-01-14 09:01:00,16.7,-99.9,30.00,NNW,346,7.0,12.1,75,0.00,,,0.00,42.8,,2014-01-14 15:01:00,
2014-01-14 09:11:00,16.7,-99.9,30.00,North,5,11.0,15.5,74,0.00,,,0.00,52.79,,2014-01-14 15:11:00,
2014-01-14 09:21:00,16.7,-99.9,30.01,North,0,9.0,13.8,75,0.00,,,0.00,41.92,,2014-01-14 15:21:00,
2014-01-14 09:31:00,16.6,-99.9,30.02,NNE,22,8.0,12.1,75,0.00,,,0.00,40.43,,2014-01-14 15:31:00,
2014-01-14 09:41:00,16.6,-99.9,30.03,North,0,5.0,8.8,76,0.00,,,0.00,40.13,,2014-01-14 15:41:00,
2014-01-14 09:51:00,16.6,-99.9,30.03,North,351,7.0,10.5,76,0.00,,,0.00,47.91,,2014-01-14 15:51:00,
2014-01-14 10:01:00,16.5,-99.9,30.04,NNE,12,9.0,13.8,75,0.00,,,0.00,55.99,,2014-01-14 16:01:00,
2014-01-14 10:11:00,16.5,-99.9,30.04,NNE,27,6.0,8.8,76,0.00,,,0.00,54.64,,2014-01-14 16:11:00,
2014-01-14 10:21:00,16.5,-99.9,30.05,NNE,23,6.0,10.5,75,0.00,,,0.00,65.47,,2014-01-14 16:21:00,
2014-01-14 10:31:00,16.5,-99.9,30.05,NW,315,7.0,12.1,75,0.00,,,0.00,100.2,,2014-01-14 16:31:00,
2014-01-14 10:41:00,16.3,-99.9,30.06,NNW,327,8.0,13.8,75,0.00,,,0.00,125.9,,2014-01-14 16:41:00,
2014-01-14 10:51:00,16.4,-99.9,30.06,NNE,14,7.0,10.5,76,0.00,,,0.00,113.7,,2014-01-14 16:51:00,
2014-01-14 11:01:00,16.5,-99.9,30.07,NW,325,7.0,12.1,76,0.00,,,0.00,147,,2014-01-14 17:01:00,
2014-01-14 11:11:00,16.4,-99.9,30.08,NW,319,8.0,12.1,75,0.00,,,0.00,144.7,,2014-01-14 17:11:00,
2014-01-14 11:21:00,16.4,-99.9,30.08,North,0,9.0,13.8,74,0.00,,,0.00,155.8,,2014-01-14 17:21:00,
2014-01-14 11:31:00,16.5,-99.9,30.08,North,3,6.0,10.5,75,0.00,,,0.00,173.1,,2014-01-14 17:31:00,
2014-01-14 11:41:00,16.5,-99.9,30.09,NNW,331,6.0,8.8,76,0.00,,,0.00,181.8,,2014-01-14 17:41:00,
2014-01-14 11:51:00,16.8,-99.9,30.09,North,1,8.0,12.1,76,0.00,,,0.00,175.6,,2014-01-14 17:51:00,
2014-01-14 12:01:00,16.9,-99.9,30.09,NW,315,8.0,12.1,76,0.00,,,0.00,153.9,,2014-01-14 18:01:00,
2014-01-14 12:11:00,17.4,-99.9,30.10,NNW,348,5.0,10.5,77,0.00,,,0.00,141,,2014-01-14 18:11:00,
2014-01-14 12:21:00,17.2,-99.9,30.10,North,9,6.0,10.5,77,0.00,,,0.00,131.4,,2014-01-14 18:21:00,
2014-01-14 12:31:00,17.2,-99.9,30.10,North,0,5.0,10.5,78,0.00,,,0.00,125.9,,2014-01-14 18:31:00,
2014-01-14 12:41:00,17.0,-99.9,30.10,North,0,6.0,10.5,79,0.00,,,0.00,102,,2014-01-14 18:41:00,
2014-01-14 12:51:00,16.8,-99.9,30.10,NE,44,7.0,13.8,81,0.00,,,0.00,104.2,,2014-01-14 18:51:00,
2014-01-14 13:01:00,16.7,-99.9,30.10,NNW,345,5.0,7.1,83,0.00,,,0.00,107.9,,2014-01-14 19:01:00,
2014-01-14 13:11:00,16.6,-99.9,30.11,North,6,5.0,8.8,83,0.00,,,0.00,104.3,,2014-01-14 19:11:00,
2014-01-14 13:21:00,16.4,-99.9,30.11,NNW,332,9.0,13.8,82,0.00,,,0.00,140.1,,2014-01-14 19:21:00,
2014-01-14 13:31:00,16.5,-99.9,30.12,NW,321,10.0,17.2,75,0.00,,,0.00,156.8,,2014-01-14 19:31:00,
2014-01-14 13:41:00,16.3,-99.9,30.12,NNW,335,10.0,15.5,76,0.00,,,0.00,153.4,,2014-01-14 19:41:00,
2014-01-14 13:51:00,16.3,-99.9,30.12,NNW,332,13.0,17.2,75,0.00,,,0.00,166.9,,2014-01-14 19:51:00,
2014-01-14 14:01:00,16.4,-99.9,30.12,North,8,10.0,20.5,75,0.00,,,0.00,170.5,,2014-01-14 20:01:00,
2014-01-14 14:11:00,16.5,-99.9,30.13,NW,325,10.0,17.2,74,0.00,,,0.00,168.7,,2014-01-14 20:11:00,
2014-01-14 14:21:00,16.9,-99.9,30.13,North,2,10.0,13.8,73,0.00,,,0.00,179.1,,2014-01-14 20:21:00,
2014-01-14 14:31:00,16.8,-99.9,30.13,NW,318,9.0,15.5,73,0.00,,,0.00,138.1,,2014-01-14 20:31:00,
2014-01-14 14:41:00,16.7,-99.9,30.14,NNW,334,11.0,15.5,71,0.00,,,0.00,141.3,,2014-01-14 20:41:00,
2014-01-14 14:51:00,16.8,-99.9,30.15,NNW,330,9.0,13.8,71,0.00,,,0.00,120.3,,2014-01-14 20:51:00,
2014-01-14 15:01:00,16.8,-99.9,30.14,NNW,346,5.0,7.1,72,0.00,,,0.00,109,,2014-01-14 21:01:00,
2014-01-14 15:11:00,16.3,-99.9,30.15,North,2,10.0,15.5,71,0.00,,,0.00,95.5,,2014-01-14 21:11:00,
2014-01-14 15:21:00,16.0,-99.9,30.15,West,262,11.0,17.2,72,0.00,,,0.00,83.7,,2014-01-14 21:21:00,
2014-01-14 15:31:00,15.8,-99.9,30.16,North,0,7.0,12.1,73,0.00,,,0.00,74.11,,2014-01-14 21:31:00,
2014-01-14 15:41:00,16.0,-99.9,30.16,NNE,23,5.0,8.8,74,0.00,,,0.00,74.65,,2014-01-14 21:41:00,
2014-01-14 15:51:00,16.1,-99.9,30.16,NNW,330,9.0,13.8,72,0.00,,,0.00,64.59,,2014-01-14 21:51:00,
2014-01-14 16:01:00,16.0,-99.9,30.16,NNW,328,7.0,12.1,73,0.00,,,0.00,49.63,,2014-01-14 22:01:00,
2014-01-14 16:11:00,15.8,-99.9,30.16,WNW,300,5.0,7.1,76,0.00,,,0.00,45.61,,2014-01-14 22:11:00,
2014-01-14 16:21:00,15.4,-99.9,30.16,NW,313,5.0,8.8,82,0.00,,,0.00,30.96,,2014-01-14 22:21:00,
2014-01-14 16:31:00,15.1,-99.9,30.17,NNW,346,7.0,12.1,79,0.00,,,0.00,31.59,,2014-01-14 22:31:00,
2014-01-14 16:41:00,15.1,-99.9,30.17,NW,305,6.0,10.5,79,0.00,,,0.00,21.03,,2014-01-14 22:41:00,
2014-01-14 16:51:00,14.9,-99.9,30.18,West,276,4.0,7.1,80,0.00,,,0.00,17.11,,2014-01-14 22:51:00,
2014-01-14 17:01:00,14.7,-99.9,30.18,WNW,289,7.0,15.5,79,0.00,,,0.00,4.842,,2014-01-14 23:01:00,
2014-01-14 17:11:00,14.2,-99.9,30.18,WNW,301,10.0,15.5,78,0.00,,,0.00,2.659,,2014-01-14 23:11:00,
2014-01-14 17:21:00,14.0,-99.9,30.18,WNW,282,9.0,15.5,79,0.00,,,0.00,1.014,,2014-01-14 23:21:00,
2014-01-14 17:31:00,13.6,-99.9,30.19,West,277,7.0,12.1,77,0.00,,,0.00,0.203,,2014-01-14 23:31:00,
2014-01-14 17:41:00,13.4,-99.9,30.19,WNW,286,9.0,13.8,77,0.00,,,0.00,0.031,,2014-01-14 23:41:00,
2014-01-14 17:51:00,12.9,-99.9,30.19,WNW,296,12.0,15.5,77,0.00,,,0.00,0.007,,2014-01-14 23:51:00,
2014-01-14 18:01:00,12.7,-99.9,30.20,NW,307,7.0,12.1,76,0.00,,,0.00,0.003,,2014-01-15 00:01:00,
2014-01-14 18:11:00,12.5,-99.9,30.19,North,0,4.0,7.1,76,0.00,,,0.00,0.007,,2014-01-15 00:11:00,
2014-01-14 18:21:00,11.9,-99.9,30.20,North,0,7.0,8.8,76,0.00,,,0.00,0.003,,2014-01-15 00:21:00,
2014-01-14 18:31:00,11.4,-99.9,30.20,NW,317,5.0,8.8,76,0.00,,,0.00,0.003,,2014-01-15 00:31:00,
2014-01-14 18:41:00,10.6,-99.9,30.21,NNW,339,5.0,8.8,77,0.00,,,0.00,0,,2014-01-15 00:41:00,
2014-01-14 18:51:00,9.8,-99.9,30.21,NNW,330,4.0,5.4,78,0.00,,,0.00,0,,2014-01-15 00:51:00,
2014-01-14 19:01:00,9.3,-99.9,30.21,WNW,296,5.0,8.8,78,0.00,,,0.00,0,,2014-01-15 01:01:00,
2014-01-14 19:11:00,9.0,-99.9,30.21,West,265,4.0,5.4,78,0.00,,,0.00,0,,2014-01-15 01:11:00,
2014-01-14 19:21:00,8.7,-99.9,30.21,NW,314,4.0,7.1,78,0.00,,,0.00,0,,2014-01-15 01:21:00,
2014-01-14 19:31:00,8.0,-99.9,30.21,NNW,327,3.0,7.1,79,0.00,,,0.00,0,,2014-01-15 01:31:00,
2014-01-14 19:41:00,7.3,-99.9,30.21,North,0,3.0,5.4,79,0.00,,,0.00,0,,2014-01-15 01:41:00,
2014-01-14 19:51:00,7.5,-99.9,30.22,NW,318,4.0,5.4,79,0.00,,,0.00,0,,2014-01-15 01:51:00,
2014-01-14 20:01:00,6.8,-99.9,30.21,NNW,330,2.0,3.8,80,0.00,,,0.00,0,,2014-01-15 02:01:00,
2014-01-14 20:11:00,6.6,-99.9,30.21,NNW,342,1.0,3.8,80,0.00,,,0.00,0,,2014-01-15 02:11:00,
2014-01-14 20:21:00,6.2,-99.9,30.22,NW,318,0.0,2.1,80,0.00,,,0.00,0,,2014-01-15 02:21:00,
2014-01-14 20:31:00,5.9,-99.9,30.21,NNW,329,2.0,3.8,80,0.00,,,0.00,0,,2014-01-15 02:31:00,
2014-01-14 20:41:00,5.9,-99.9,30.22,NNW,342,2.0,3.8,80,0.00,,,0.00,0,,2014-01-15 02:41:00,
2014-01-14 20:51:00,5.7,-99.9,30.22,North,351,3.0,5.4,80,0.00,,,0.00,0,,2014-01-15 02:51:00,
2014-01-14 21:01:00,4.9,-99.9,30.22,NNW,342,1.0,3.8,81,0.00,,,0.00,0,,2014-01-15 03:01:00,
2014-01-14 21:11:00,4.8,-99.9,30.22,North,5,1.0,3.8,82,0.00,,,0.00,0,,2014-01-15 03:11:00,
2014-01-14 21:21:00,4.8,-99.9,30.23,NW,326,2.0,3.8,81,0.00,,,0.00,0,,2014-01-15 03:21:00,
2014-01-14 21:31:00,4.2,-99.9,30.23,NW,315,2.0,3.8,81,0.00,,,0.00,0,,2014-01-15 03:31:00,
2014-01-14 21:41:00,3.5,-99.9,30.22,WNW,300,3.0,3.8,81,0.00,,,0.00,0,,2014-01-15 03:41:00,
2014-01-14 21:51:00,2.6,-99.9,30.22,WNW,296,1.0,3.8,82,0.00,,,0.00,0,,2014-01-15 03:51:00,
2014-01-14 22:01:00,1.7,-99.9,30.22,NW,313,0.0,0.0,81,0.00,,,0.00,0,,2014-01-15 04:01:00,
2014-01-14 22:11:00,1.3,-99.9,30.22,South,174,0.0,0.0,82,0.00,,,0.00,0,,2014-01-15 04:11:00,
2014-01-14 22:21:00,0.1,-99.9,30.22,SW,236,0.0,2.1,84,0.00,,,0.00,0,,2014-01-15 04:21:00,
2014-01-14 22:31:00,1.3,-99.9,30.21,NNW,348,2.0,3.8,82,0.00,,,0.00,0,,2014-01-15 04:31:00,
2014-01-14 22:41:00,1.2,-99.9,30.21,NW,317,3.0,3.8,80,0.00,,,0.00,0,,2014-01-15 04:41:00,
2014-01-14 22:51:00,0.1,-99.9,30.20,WSW,239,0.0,0.0,81,0.00,,,0.00,0,,2014-01-15 04:51:00,
2014-01-14 23:01:00,0.8,-99.9,30.20,SW,228,0.0,2.1,83,0.00,,,0.00,0,,2014-01-15 05:01:00,
2014-01-14 23:11:00,0.5,-99.9,30.19,West,264,2.0,3.8,80,0.00,,,0.00,0,,2014-01-15 05:11:00,
2014-01-14 23:21:00,1.4,-99.9,30.19,WNW,303,5.0,7.1,80,0.00,,,0.00,0,,2014-01-15 05:21:00,
2014-01-14 23:31:00,0.6,-99.9,30.18,SSW,206,0.0,0.0,78,0.00,,,0.00,0,,2014-01-15 05:31:00,
2014-01-14 23:41:00,-0.4,-99.9,30.19,NNW,333,0.0,2.1,80,0.00,,,0.00,0,,2014-01-15 05:41:00,
2014-01-14 23:51:00,-1.1,-99.9,30.18,SSW,202,0.0,0.0,82,0.00,,,0.00,0,,2014-01-15 05:51:00,